Time;durP1;ratioP1;P1;durP2;ratioP2;P2;SDS_P1;SDS_P2;PMS_P1;PMS_P2;Temp;Humidity;BMP_temperature;BMP_pressure;BME280_temperature;BME280_humidity;BME280_pressure;Samples;Min_cycle;Max_cycle;Signal;HPM_P1;HPM_P2
2021/08/07 00:01:35;;;;;;;21.05;11.20;;;27.60;56.70;;;;;;5049625;28;20180;-74
2021/08/07 00:04:02;;;;;;;21.83;11.10;;;27.60;56.60;;;;;;5046461;28;20195;-75
2021/08/07 00:06:28;;;;;;;19.25;10.93;;;27.60;56.40;;;;;;5028484;28;20190;-75
2021/08/07 00:08:55;;;;;;;20.08;10.88;;;27.60;56.60;;;;;;5030018;28;20204;-75
2021/08/07 00:11:21;;;;;;;21.15;10.38;;;27.60;56.40;;;;;;5054058;28;20218;-75
2021/08/07 00:13:48;;;;;;;18.73;10.07;;;27.60;56.50;;;;;;5027993;28;20270;-75
2021/08/07 00:16:14;;;;;;;22.88;10.70;;;27.60;56.50;;;;;;5046576;28;20207;-75
2021/08/07 00:18:41;;;;;;;21.35;10.18;;;27.60;57.10;;;;;;5046466;28;20180;-75
2021/08/07 00:21:07;;;;;;;18.17;10.25;;;27.60;56.30;;;;;;5046783;28;20184;-75
2021/08/07 00:23:33;;;;;;;35.08;12.05;;;27.60;56.40;;;;;;5034687;28;20340;-75
2021/08/07 00:25:59;;;;;;;33.15;10.95;;;27.60;56.50;;;;;;5044746;28;20191;-74
2021/08/07 00:28:26;;;;;;;21.15;10.23;;;27.60;56.40;;;;;;5060289;28;20283;-75
2021/08/07 00:30:52;;;;;;;19.30;9.73;;;27.60;56.20;;;;;;5045044;28;20642;-74
2021/08/07 00:33:18;;;;;;;24.95;10.45;;;27.60;56.30;;;;;;5043381;28;20191;-75
2021/08/07 00:35:46;;;;;;;16.10;10.63;;;27.60;56.70;;;;;;5049762;28;20361;-75
2021/08/07 00:38:13;;;;;;;16.88;10.40;;;27.60;56.80;;;;;;5042680;28;20187;-75
2021/08/07 00:40:39;;;;;;;21.25;10.02;;;27.60;56.70;;;;;;5060266;28;20293;-75
2021/08/07 00:43:10;;;;;;;31.90;10.70;;;27.60;56.00;;;;;;5034385;28;20249;-74
2021/08/07 00:45:39;;;;;;;21.67;10.25;;;27.50;56.10;;;;;;5028084;28;20231;-75
2021/08/07 00:48:10;;;;;;;21.45;10.65;;;27.50;56.10;;;;;;5026543;28;20195;-74
2021/08/07 00:50:37;;;;;;;18.88;10.18;;;27.40;56.10;;;;;;5043258;28;20262;-75
2021/08/07 00:53:06;;;;;;;17.60;9.70;;;27.40;55.90;;;;;;5028760;28;20222;-75
2021/08/07 00:55:32;;;;;;;21.38;10.30;;;27.50;56.10;;;;;;5031268;28;20180;-74
2021/08/07 00:57:59;;;;;;;17.98;9.68;;;27.50;55.80;;;;;;5029118;28;20183;-75
2021/08/07 01:00:27;;;;;;;24.48;10.45;;;27.50;55.80;;;;;;5044965;28;20290;-75
2021/08/07 01:03:17;;;;;;;18.98;10.38;;;27.50;55.70;;;;;;5047015;28;20183;-75
2021/08/07 01:05:55;;;;;;;24.63;9.43;;;27.50;54.80;;;;;;5044364;28;20198;-75
2021/08/07 01:08:25;;;;;;;18.88;9.52;;;27.40;54.50;;;;;;5045431;28;20179;-75
2021/08/07 01:11:27;;;;;;;16.05;8.55;;;27.40;54.60;;;;;;5046998;28;20241;-75
2021/08/07 01:14:02;;;;;;;21.88;7.72;;;27.40;54.20;;;;;;5034887;28;20262;-75
2021/08/07 01:16:41;;;;;;;24.25;8.20;;;27.50;54.90;;;;;;5040198;28;20183;-75
2021/08/07 01:19:16;;;;;;;24.85;8.23;;;27.50;54.10;;;;;;5044610;28;20194;-75
2021/08/07 01:21:56;;;;;;;24.83;7.47;;;27.50;53.50;;;;;;5044743;28;20223;-75
2021/08/07 01:25:05;;;;;;;21.10;6.82;;;27.50;52.40;;;;;;5027321;28;20195;-74
2021/08/07 01:27:37;;;;;;;28.00;7.15;;;27.40;51.80;;;;;;5039446;28;20187;-75
2021/08/07 01:30:07;;;;;;;21.83;6.43;;;27.50;51.80;;;;;;5061946;28;20599;-75
2021/08/07 01:32:36;;;;;;;29.42;6.93;;;27.50;51.10;;;;;;5043942;28;20183;-75
2021/08/07 01:35:07;;;;;;;17.85;6.10;;;27.40;51.10;;;;;;5044098;28;20191;-75
2021/08/07 01:37:34;;;;;;;21.92;6.10;;;27.40;50.80;;;;;;5059810;28;20192;-74
2021/08/07 01:40:00;;;;;;;16.77;6.43;;;27.40;51.10;;;;;;5044126;28;20309;-76
2021/08/07 01:42:28;;;;;;;32.25;6.20;;;27.40;50.60;;;;;;5044705;28;20227;-75
2021/08/07 01:44:54;;;;;;;22.85;6.47;;;27.40;50.80;;;;;;5059168;28;20261;-75
2021/08/07 01:47:43;;;;;;;21.75;6.38;;;27.40;50.70;;;;;;5045822;28;20246;-74
2021/08/07 01:50:36;;;;;;;17.58;5.70;;;27.40;50.60;;;;;;5060075;28;20257;-75
2021/08/07 01:53:13;;;;;;;17.35;5.65;;;27.30;50.40;;;;;;5065053;28;20206;-75
2021/08/07 01:56:11;;;;;;;21.13;6.25;;;27.30;50.90;;;;;;5050927;28;20263;-75
2021/08/07 01:58:46;;;;;;;27.25;6.80;;;27.20;51.10;;;;;;5061408;28;20195;-75
2021/08/07 02:01:21;;;;;;;27.83;7.05;;;27.30;50.40;;;;;;5043596;28;20234;-75
2021/08/07 02:03:49;;;;;;;18.20;6.03;;;27.30;50.40;;;;;;5050825;28;20205;-75
2021/08/07 02:06:15;;;;;;;20.65;7.13;;;27.30;51.50;;;;;;5031254;28;20187;-74
2021/08/07 02:08:43;;;;;;;27.27;7.47;;;27.40;51.60;;;;;;5030294;28;20255;-75
2021/08/07 02:11:10;;;;;;;20.05;7.80;;;27.40;51.80;;;;;;5034578;28;20218;-76
2021/08/07 02:13:39;;;;;;;24.63;8.95;;;27.40;51.30;;;;;;5047403;28;20234;-75
2021/08/07 02:16:08;;;;;;;14.40;8.00;;;27.40;52.30;;;;;;5048123;28;21390;-75
2021/08/07 02:18:35;;;;;;;24.83;8.70;;;27.30;52.30;;;;;;5048287;28;20660;-74
2021/08/07 02:21:02;;;;;;;21.23;9.30;;;27.30;52.40;;;;;;5046619;28;20211;-75
2021/08/07 02:23:29;;;;;;;21.20;9.00;;;27.20;52.50;;;;;;5045671;28;20196;-74
2021/08/07 02:26:00;;;;;;;19.73;9.25;;;27.10;52.60;;;;;;5032060;28;20528;-74
2021/08/07 02:28:29;;;;;;;24.23;9.82;;;27.10;52.90;;;;;;5048014;28;20211;-74
2021/08/07 02:31:00;;;;;;;28.33;9.40;;;27.10;52.90;;;;;;5046296;28;20218;-75
2021/08/07 02:33:28;;;;;;;19.35;8.55;;;27.20;53.10;;;;;;5031940;28;20198;-75
2021/08/07 02:35:58;;;;;;;24.25;8.82;;;27.20;53.00;;;;;;5046596;28;20179;-75
2021/08/07 02:38:27;;;;;;;21.30;8.88;;;27.20;52.40;;;;;;5062255;28;20214;-75
2021/08/07 02:40:56;;;;;;;22.67;8.65;;;27.20;51.90;;;;;;5060931;28;20191;-75
2021/08/07 02:43:23;;;;;;;24.08;7.60;;;27.20;52.10;;;;;;5027226;28;20192;-75
2021/08/07 02:45:50;;;;;;;21.90;8.80;;;27.10;51.50;;;;;;5045370;28;20223;-74
2021/08/07 02:48:17;;;;;;;20.50;7.20;;;27.20;51.70;;;;;;5045872;28;20206;-75
2021/08/07 02:50:45;;;;;;;30.30;8.10;;;27.20;51.60;;;;;;5043992;28;20223;-75
2021/08/07 02:53:13;;;;;;;35.92;7.85;;;27.20;51.30;;;;;;5048185;28;20206;-75
2021/08/07 02:55:40;;;;;;;26.17;7.93;;;27.20;51.80;;;;;;5048577;28;20306;-75
2021/08/07 02:58:08;;;;;;;28.35;8.18;;;27.20;51.40;;;;;;5047648;28;20187;-74
2021/08/07 03:00:37;;;;;;;26.60;7.90;;;27.10;50.90;;;;;;5030664;28;20210;-74
2021/08/07 03:03:04;;;;;;;28.63;7.75;;;27.00;50.70;;;;;;5045623;28;20538;-75
2021/08/07 03:05:31;;;;;;;18.48;6.75;;;27.00;51.20;;;;;;5044575;28;20179;-74
2021/08/07 03:07:58;;;;;;;22.08;6.95;;;27.00;51.00;;;;;;5044010;28;20241;-75
2021/08/07 03:10:25;;;;;;;22.50;7.60;;;27.00;50.70;;;;;;5044536;28;20592;-75
2021/08/07 03:12:54;;;;;;;23.25;7.68;;;27.00;51.30;;;;;;5046408;28;20192;-75
2021/08/07 03:15:23;;;;;;;19.60;6.82;;;26.90;50.50;;;;;;5045703;28;20176;-74
2021/08/07 03:17:52;;;;;;;27.77;7.38;;;26.80;50.90;;;;;;5026182;28;20187;-75
2021/08/07 03:20:19;;;;;;;32.20;7.63;;;26.70;51.70;;;;;;5044391;28;20628;-75
2021/08/07 03:22:46;;;;;;;16.40;6.68;;;26.70;52.20;;;;;;5047007;28;20270;-75
2021/08/07 03:25:13;;;;;;;21.73;6.75;;;26.70;52.00;;;;;;5063719;28;20334;-75
2021/08/07 03:27:40;;;;;;;25.85;7.57;;;26.70;52.00;;;;;;5024549;28;20297;-75
2021/08/07 03:30:07;;;;;;;18.02;6.68;;;26.60;52.00;;;;;;5039759;28;20257;-76
2021/08/07 03:32:33;;;;;;;18.90;7.30;;;26.80;52.40;;;;;;5040891;28;20636;-75
2021/08/07 03:35:00;;;;;;;17.70;6.45;;;26.90;53.20;;;;;;5025538;28;20729;-75
2021/08/07 03:37:26;;;;;;;20.17;7.55;;;27.00;53.30;;;;;;5028236;28;20326;-75
2021/08/07 03:39:53;;;;;;;17.13;7.10;;;27.00;53.60;;;;;;5046549;28;20216;-75
2021/08/07 03:42:20;;;;;;;17.52;6.60;;;27.10;53.10;;;;;;5047646;28;20187;-75
2021/08/07 03:44:46;;;;;;;21.73;6.90;;;27.10;53.40;;;;;;5043526;28;20521;-75
2021/08/07 03:47:14;;;;;;;26.73;6.97;;;27.20;53.40;;;;;;5044267;28;20687;-75
2021/08/07 03:49:41;;;;;;;26.50;7.15;;;27.20;53.10;;;;;;5043170;28;20219;-75
2021/08/07 03:52:08;;;;;;;25.10;7.72;;;27.20;53.40;;;;;;5026074;28;20183;-74
2021/08/07 03:54:35;;;;;;;25.92;8.15;;;27.20;54.20;;;;;;5047935;28;20184;-75
2021/08/07 03:57:02;;;;;;;17.10;8.50;;;27.30;53.90;;;;;;5045285;28;20679;-75
2021/08/07 03:59:28;;;;;;;23.15;8.18;;;27.30;54.30;;;;;;5028806;28;20987;-75
2021/08/07 04:01:55;;;;;;;20.05;9.05;;;27.30;54.10;;;;;;5047997;28;20190;-74
2021/08/07 04:04:21;;;;;;;21.08;9.43;;;27.40;53.90;;;;;;5044245;28;20177;-75
2021/08/07 04:06:47;;;;;;;20.80;10.30;;;27.30;54.80;;;;;;5051708;28;20180;-75
2021/08/07 04:09:13;;;;;;;19.45;9.70;;;27.40;55.00;;;;;;5043431;28;20275;-76
2021/08/07 04:11:40;;;;;;;19.40;8.75;;;27.40;54.70;;;;;;5027000;28;20726;-75
2021/08/07 04:14:06;;;;;;;29.65;9.00;;;27.40;54.30;;;;;;5043084;28;20189;-75
2021/08/07 04:16:34;;;;;;;27.83;8.18;;;27.40;54.40;;;;;;5045424;28;20196;-74
2021/08/07 04:19:01;;;;;;;26.75;8.48;;;27.50;53.70;;;;;;5040157;28;20214;-74
2021/08/07 04:21:27;;;;;;;20.08;8.15;;;27.50;55.50;;;;;;5038731;28;20825;-74
2021/08/07 04:23:53;;;;;;;28.38;7.82;;;27.50;56.00;;;;;;5030032;28;20187;-75
2021/08/07 04:26:19;;;;;;;25.00;7.93;;;27.50;55.90;;;;;;5020803;28;20199;-75
2021/08/07 04:28:46;;;;;;;29.55;8.02;;;27.50;56.00;;;;;;5026456;28;20199;-75
2021/08/07 04:31:12;;;;;;;25.85;7.72;;;27.50;56.00;;;;;;5043964;28;20266;-75
2021/08/07 04:33:38;;;;;;;21.17;6.97;;;27.50;56.80;;;;;;5025033;28;20185;-74
2021/08/07 04:36:05;;;;;;;29.00;8.07;;;27.40;57.10;;;;;;5023041;28;20207;-75
2021/08/07 04:38:32;;;;;;;24.58;8.15;;;27.40;56.20;;;;;;5026817;28;20651;-74
2021/08/07 04:40:58;;;;;;;17.83;7.80;;;27.40;56.60;;;;;;5042586;28;20222;-75
2021/08/07 04:43:25;;;;;;;21.88;7.13;;;27.50;57.50;;;;;;5039724;28;20223;-74
2021/08/07 04:45:52;;;;;;;22.73;8.32;;;27.50;57.70;;;;;;5046301;28;20758;-74
2021/08/07 04:48:18;;;;;;;26.08;8.70;;;27.50;58.40;;;;;;5025318;28;20576;-75
2021/08/07 04:50:44;;;;;;;23.30;8.82;;;27.50;59.00;;;;;;5045260;28;20215;-75
2021/08/07 04:53:11;;;;;;;24.80;9.02;;;27.60;59.60;;;;;;5045570;28;20233;-75
2021/08/07 04:55:37;;;;;;;21.63;8.48;;;27.50;59.60;;;;;;5046189;28;20298;-75
2021/08/07 04:58:04;;;;;;;17.77;8.80;;;27.60;59.40;;;;;;5046046;28;20215;-75
2021/08/07 05:00:30;;;;;;;26.40;9.68;;;27.70;60.00;;;;;;5044321;28;20290;-75
2021/08/07 05:02:56;;;;;;;22.95;9.13;;;27.70;60.20;;;;;;5060339;28;20203;-75
2021/08/07 05:05:23;;;;;;;25.83;8.95;;;27.70;60.40;;;;;;5025996;28;21610;-75
2021/08/07 05:07:49;;;;;;;23.27;8.20;;;27.70;60.90;;;;;;5043658;28;20269;-75
2021/08/07 05:10:16;;;;;;;21.77;8.52;;;27.80;61.30;;;;;;5030946;28;20215;-75
2021/08/07 05:12:43;;;;;;;18.38;8.68;;;27.80;61.60;;;;;;5032372;28;20185;-74
2021/08/07 05:15:11;;;;;;;24.50;8.75;;;27.80;61.00;;;;;;5060327;28;20194;-74
2021/08/07 05:17:37;;;;;;;18.80;8.50;;;27.90;61.40;;;;;;5047015;28;20180;-75
2021/08/07 05:20:04;;;;;;;17.98;8.35;;;27.90;61.60;;;;;;5043713;28;20187;-75
2021/08/07 05:22:31;;;;;;;22.75;8.52;;;27.90;61.80;;;;;;5044944;28;20187;-76
2021/08/07 05:24:57;;;;;;;21.85;8.85;;;28.00;62.70;;;;;;5041257;28;20277;-74
2021/08/07 05:27:23;;;;;;;21.67;8.48;;;28.10;62.20;;;;;;5040895;28;20187;-74
2021/08/07 05:29:50;;;;;;;21.25;8.48;;;28.10;62.70;;;;;;5045037;28;20204;-74
2021/08/07 05:32:16;;;;;;;23.38;8.60;;;28.10;63.40;;;;;;5040183;28;20550;-74
2021/08/07 05:34:43;;;;;;;20.73;8.20;;;28.10;64.30;;;;;;5056530;28;20420;-75
2021/08/07 05:37:09;;;;;;;27.33;8.43;;;28.20;66.10;;;;;;5060623;28;20179;-75
2021/08/07 05:39:36;;;;;;;25.27;8.35;;;28.20;67.10;;;;;;5041226;28;20192;-73
2021/08/07 05:42:02;;;;;;;23.63;7.03;;;28.30;69.50;;;;;;5046638;28;20190;-75
2021/08/07 05:44:29;;;;;;;17.55;7.43;;;28.30;70.30;;;;;;5040969;28;20187;-74
2021/08/07 05:46:56;;;;;;;34.00;8.57;;;28.40;71.70;;;;;;5038268;28;20215;-75
2021/08/07 05:49:23;;;;;;;17.65;6.97;;;28.50;72.80;;;;;;5061771;28;20643;-75
2021/08/07 05:51:52;;;;;;;31.40;7.63;;;28.50;70.80;;;;;;5042279;28;20798;-75
2021/08/07 05:54:20;;;;;;;24.35;6.80;;;28.60;70.00;;;;;;5040065;28;20590;-75
2021/08/07 05:56:47;;;;;;;29.42;7.15;;;28.60;71.10;;;;;;5024719;28;20199;-74
2021/08/07 05:59:13;;;;;;;28.02;6.43;;;28.70;71.60;;;;;;5039048;28;20684;-75
2021/08/07 06:01:40;;;;;;;33.53;6.90;;;28.70;73.50;;;;;;5025404;28;20206;-75
2021/08/07 06:04:06;;;;;;;17.40;6.13;;;28.80;73.10;;;;;;5041858;28;20258;-75
2021/08/07 06:06:32;;;;;;;17.73;5.90;;;28.80;75.10;;;;;;5044609;28;20219;-75
2021/08/07 06:08:59;;;;;;;24.05;6.95;;;28.80;75.70;;;;;;5039779;28;20286;-75
2021/08/07 06:11:25;;;;;;;34.72;7.25;;;28.90;77.40;;;;;;5038112;28;20299;-75
2021/08/07 06:13:51;;;;;;;35.35;7.55;;;29.00;75.50;;;;;;5044743;28;20655;-75
2021/08/07 06:16:17;;;;;;;24.77;7.10;;;29.00;73.70;;;;;;5043032;28;20188;-74
2021/08/07 06:18:46;;;;;;;44.30;7.50;;;29.10;72.10;;;;;;5030167;28;20202;-74
2021/08/07 06:21:14;;;;;;;25.25;6.80;;;29.20;70.70;;;;;;5024180;28;20363;-75
2021/08/07 06:23:42;;;;;;;29.65;7.13;;;29.20;70.40;;;;;;5038441;28;20612;-75
2021/08/07 06:26:09;;;;;;;27.35;6.93;;;29.20;72.00;;;;;;5044048;28;20198;-75
2021/08/07 06:28:37;;;;;;;25.40;7.15;;;29.20;71.10;;;;;;5040147;28;20192;-75
2021/08/07 06:31:03;;;;;;;29.13;7.22;;;29.30;72.40;;;;;;5042672;28;20303;-74
2021/08/07 06:33:29;;;;;;;22.27;6.97;;;29.40;74.90;;;;;;5025512;28;20199;-74
2021/08/07 06:35:56;;;;;;;19.38;6.00;;;29.40;71.50;;;;;;5044219;28;20894;-75
2021/08/07 06:38:22;;;;;;;23.98;6.50;;;29.40;72.10;;;;;;5044544;28;20197;-75
2021/08/07 06:40:49;;;;;;;36.83;7.05;;;29.40;74.40;;;;;;5045381;28;20279;-75
2021/08/07 06:43:16;;;;;;;18.45;5.97;;;29.50;75.40;;;;;;5047324;28;20220;-75
2021/08/07 06:45:42;;;;;;;24.48;6.60;;;29.50;74.40;;;;;;5045292;28;20215;-75
2021/08/07 06:48:08;;;;;;;27.17;7.18;;;29.60;76.70;;;;;;5058985;28;20211;-75
2021/08/07 06:50:35;;;;;;;29.60;7.93;;;29.60;77.60;;;;;;5047860;28;20238;-75
2021/08/07 06:53:01;;;;;;;29.80;7.15;;;29.70;81.50;;;;;;5027401;28;20210;-75
2021/08/07 08:32:55;;;;;;;37.45;9.38;;;31.70;88.10;;;;;;5048730;28;20580;-73
2021/08/07 08:35:22;;;;;;;24.58;8.77;;;31.90;90.00;;;;;;5046612;28;20206;-69
2021/08/07 08:37:49;;;;;;;29.27;9.15;;;31.90;90.00;;;;;;5035694;28;20575;-72
2021/08/07 08:40:16;;;;;;;23.90;9.18;;;31.90;89.60;;;;;;5042183;28;20443;-70
2021/08/07 08:42:43;;;;;;;23.70;8.60;;;32.00;90.90;;;;;;5032518;28;20196;-72
2021/08/07 08:45:11;;;;;;;34.75;9.15;;;31.90;90.20;;;;;;5040374;28;20578;-70
2021/08/07 08:47:40;;;;;;;28.55;9.18;;;31.90;90.50;;;;;;5046278;28;20219;-71
2021/08/07 08:50:08;;;;;;;38.03;9.00;;;31.80;90.50;;;;;;5033413;28;20537;-71
2021/08/07 08:52:38;;;;;;;33.47;9.27;;;31.80;91.20;;;;;;5035615;28;22241;-72
2021/08/07 08:55:08;;;;;;;28.85;8.85;;;31.90;91.70;;;;;;5034846;28;20532;-71
2021/08/07 08:57:35;;;;;;;23.98;8.27;;;31.90;91.30;;;;;;5047492;28;20851;-71
2021/08/07 09:00:04;;;;;;;21.60;8.07;;;32.00;91.60;;;;;;5050714;28;20765;-72
2021/08/07 09:02:30;;;;;;;25.73;8.80;;;32.00;91.40;;;;;;5024958;28;20274;-70
2021/08/07 09:04:56;;;;;;;28.80;8.23;;;31.90;92.60;;;;;;5031377;28;20659;-69
2021/08/07 09:07:23;;;;;;;37.92;8.50;;;32.00;92.60;;;;;;5051291;28;20704;-70
2021/08/07 09:09:56;;;;;;;39.13;7.88;;;32.10;90.20;;;;;;5034973;28;20840;-71
2021/08/07 09:12:40;;;;;;;25.67;6.70;;;32.10;83.20;;;;;;5063704;28;20602;-69
2021/08/07 09:15:28;;;;;;;25.73;6.07;;;32.10;82.80;;;;;;5035680;28;20184;-70
2021/08/07 09:18:26;;;;;;;30.92;6.88;;;32.20;80.50;;;;;;5034777;28;20556;-70
2021/08/07 09:20:54;;;;;;;24.85;6.20;;;32.30;77.70;;;;;;5047037;28;20284;-73
2021/08/07 09:23:35;;;;;;;32.42;6.10;;;32.50;79.70;;;;;;5014507;28;20196;-71
2021/08/07 09:26:18;;;;;;;27.00;6.45;;;32.60;77.40;;;;;;5037965;28;20894;-70
2021/08/07 09:28:58;;;;;;;22.17;6.38;;;32.60;73.70;;;;;;5053970;28;20216;-72
2021/08/07 09:31:26;;;;;;;26.02;5.72;;;32.80;73.00;;;;;;5031144;28;20231;-73
2021/08/07 09:34:16;;;;;;;25.80;6.18;;;32.90;73.80;;;;;;5000954;28;20264;-71
2021/08/07 09:36:53;;;;;;;32.08;6.25;;;33.10;75.50;;;;;;5021627;28;20193;-68
2021/08/07 09:39:42;;;;;;;30.88;6.53;;;33.10;77.80;;;;;;5023832;28;20188;-70
2021/08/07 09:42:09;;;;;;;28.63;6.07;;;33.10;76.20;;;;;;5005638;28;20220;-71
2021/08/07 09:44:35;;;;;;;22.85;5.88;;;33.40;75.40;;;;;;5023117;28;20891;-72
2021/08/07 09:47:15;;;;;;;30.67;6.78;;;33.60;75.20;;;;;;5024555;28;20180;-70
2021/08/07 09:49:44;;;;;;;26.85;6.25;;;33.90;74.70;;;;;;5022664;28;20223;-71
2021/08/07 09:52:11;;;;;;;22.38;6.25;;;34.10;75.50;;;;;;5021274;28;20196;-69
2021/08/07 09:54:43;;;;;;;20.15;6.22;;;34.00;75.80;;;;;;5020730;28;20863;-71
2021/08/07 09:57:24;;;;;;;25.50;6.07;;;34.00;74.30;;;;;;5025119;28;20596;-71
2021/08/07 09:59:51;;;;;;;24.23;7.18;;;34.20;73.20;;;;;;5022643;28;20189;-69
2021/08/07 10:02:27;;;;;;;32.65;5.88;;;34.80;73.50;;;;;;5019464;28;20239;-72
2021/08/07 10:04:55;;;;;;;27.23;5.80;;;34.70;73.90;;;;;;5031055;28;20195;-71
2021/08/07 10:07:21;;;;;;;37.22;6.90;;;34.70;75.40;;;;;;5031129;28;20188;-69
2021/08/07 10:09:48;;;;;;;28.27;6.80;;;35.00;73.80;;;;;;5022052;28;20177;-72
2021/08/07 10:12:16;;;;;;;22.25;6.28;;;35.50;74.30;;;;;;5022025;28;20206;-72
2021/08/07 10:14:45;;;;;;;27.48;7.22;;;35.30;75.20;;;;;;5016284;28;20220;-70
2021/08/07 10:17:17;;;;;;;26.90;7.35;;;34.70;76.20;;;;;;5017059;28;20533;-69
2021/08/07 10:19:46;;;;;;;21.27;7.07;;;34.80;76.60;;;;;;5017117;28;20191;-70
2021/08/07 10:22:15;;;;;;;25.35;7.30;;;34.60;75.50;;;;;;5020568;28;20818;-69
2021/08/07 10:24:46;;;;;;;31.73;7.60;;;34.50;75.20;;;;;;5024821;28;20267;-70
2021/08/07 10:27:17;;;;;;;99.90;9.30;;;34.50;75.00;;;;;;5022016;28;20189;-70
2021/08/07 10:29:51;;;;;;;21.55;6.80;;;34.40;76.90;;;;;;5029374;28;20188;-69
2021/08/07 10:32:20;;;;;;;28.05;7.38;;;34.50;78.10;;;;;;5019591;28;20231;-69
2021/08/07 10:34:50;;;;;;;31.27;7.10;;;35.10;78.20;;;;;;5011976;28;20265;-69
2021/08/07 10:37:17;;;;;;;29.23;8.18;;;36.50;75.50;;;;;;5022311;28;20582;-70
2021/08/07 10:39:44;;;;;;;28.80;7.57;;;37.80;71.50;;;;;;5022719;28;20188;-69
2021/08/07 10:42:14;;;;;;;31.08;7.30;;;37.30;71.60;;;;;;5032019;28;20624;-70
2021/08/07 10:44:45;;;;;;;30.52;8.20;;;36.40;72.20;;;;;;5020351;28;20223;-68
2021/08/07 10:47:12;;;;;;;28.38;7.75;;;35.30;74.10;;;;;;5022142;28;20199;-69
2021/08/07 10:49:45;;;;;;;26.65;8.00;;;34.90;75.80;;;;;;5023331;28;20193;-72
2021/08/07 10:52:20;;;;;;;24.00;7.55;;;34.60;76.50;;;;;;5005140;28;20185;-69
2021/08/07 10:54:53;;;;;;;27.55;7.68;;;34.50;77.30;;;;;;5021587;28;20193;-71
2021/08/07 10:57:39;;;;;;;26.45;7.13;;;34.20;78.50;;;;;;5016813;28;20662;-70
2021/08/07 11:00:19;;;;;;;30.42;7.63;;;34.10;78.70;;;;;;5018437;28;20602;-70
2021/08/07 11:02:48;;;;;;;23.70;7.35;;;34.00;79.60;;;;;;5022384;28;20195;-71
2021/08/07 11:05:15;;;;;;;27.10;7.90;;;33.80;80.90;;;;;;5014330;28;20189;-71
2021/08/07 11:07:41;;;;;;;30.88;7.93;;;33.80;78.50;;;;;;5016589;28;20187;-69
2021/08/07 11:10:15;;;;;;;25.75;7.85;;;33.80;80.60;;;;;;5017573;28;20282;-71
2021/08/07 11:12:45;;;;;;;32.33;8.70;;;33.80;80.70;;;;;;5020706;28;20197;-72
2021/08/07 11:15:28;;;;;;;28.30;8.38;;;33.60;83.10;;;;;;5021028;28;20204;-74
2021/08/07 11:17:54;;;;;;;18.17;7.95;;;33.60;84.10;;;;;;5022182;28;20226;-69
2021/08/07 11:20:42;;;;;;;32.88;8.27;;;33.60;83.20;;;;;;5025362;28;20299;-70
2021/08/07 11:23:12;;;;;;;22.70;8.57;;;33.60;85.00;;;;;;5017865;28;20229;-70
2021/08/07 11:25:59;;;;;;;28.13;9.02;;;33.40;85.30;;;;;;5019823;28;20190;-69
2021/08/07 11:28:27;;;;;;;28.60;8.43;;;33.40;85.10;;;;;;5018686;28;20238;-70
2021/08/07 11:31:17;;;;;;;28.00;10.38;;;33.50;86.70;;;;;;5021985;28;20725;-73
2021/08/07 11:33:44;;;;;;;30.75;8.40;;;33.40;84.50;;;;;;5022689;28;20194;-71
2021/08/07 11:36:13;;;;;;;25.52;8.70;;;33.40;87.00;;;;;;5017585;28;20686;-72
2021/08/07 11:39:08;;;;;;;32.83;8.60;;;33.30;87.90;;;;;;5016878;28;20192;-71
2021/08/07 11:41:37;;;;;;;25.27;9.98;;;33.30;90.40;;;;;;5021102;28;20269;-71
2021/08/07 11:44:04;;;;;;;22.52;9.23;;;33.40;89.80;;;;;;5022854;28;20196;-71
2021/08/07 11:46:37;;;;;;;32.72;9.88;;;33.20;90.10;;;;;;5019774;28;20733;-70
2021/08/07 11:49:06;;;;;;;27.88;9.00;;;33.10;90.00;;;;;;5019532;28;20199;-74
2021/08/07 11:51:34;;;;;;;26.35;8.27;;;33.10;89.60;;;;;;5021641;28;20243;-73
2021/08/07 11:54:01;;;;;;;32.60;8.88;;;33.20;87.80;;;;;;5017520;28;20192;-71
2021/08/07 11:56:31;;;;;;;26.25;8.23;;;33.50;89.20;;;;;;5021085;28;20747;-70
2021/08/07 11:59:02;;;;;;;23.90;8.48;;;33.30;89.80;;;;;;5019459;28;20852;-69
2021/08/07 12:01:35;;;;;;;30.40;9.15;;;33.00;89.30;;;;;;5020674;28;20231;-70
2021/08/07 12:04:02;;;;;;;28.00;8.10;;;33.10;84.20;;;;;;5021558;28;20192;-70
2021/08/07 12:06:36;;;;;;;26.92;7.68;;;33.10;87.80;;;;;;5016119;28;20196;-74
2021/08/07 12:09:14;;;;;;;29.00;7.47;;;33.10;88.40;;;;;;5012115;28;20330;-71
2021/08/07 12:11:43;;;;;;;28.25;7.88;;;33.10;87.20;;;;;;5037820;28;20184;-69
2021/08/07 12:14:10;;;;;;;27.65;7.78;;;33.10;88.40;;;;;;5017637;28;20188;-72
2021/08/07 12:16:42;;;;;;;27.88;7.80;;;33.10;87.90;;;;;;5015667;28;20699;-70
2021/08/07 12:19:21;;;;;;;30.65;8.48;;;32.90;89.90;;;;;;5018852;28;20579;-70
2021/08/07 12:21:50;;;;;;;23.33;7.38;;;33.10;88.20;;;;;;5017271;28;20212;-70
2021/08/07 12:24:25;;;;;;;27.40;7.85;;;33.00;87.70;;;;;;5018884;28;20227;-72
2021/08/07 12:26:59;;;;;;;22.15;8.38;;;33.00;88.00;;;;;;5021702;28;20215;-72
2021/08/07 12:29:32;;;;;;;25.67;8.95;;;32.90;87.60;;;;;;5019482;28;20195;-70
2021/08/07 12:32:02;;;;;;;26.58;9.35;;;33.10;87.50;;;;;;5017803;28;20250;-70
2021/08/07 12:34:33;;;;;;;28.52;10.63;;;33.00;89.40;;;;;;5023785;28;20184;-71
2021/08/07 12:37:04;;;;;;;35.35;9.85;;;33.10;88.80;;;;;;5016202;28;20279;-71
2021/08/07 12:39:48;;;;;;;29.73;11.05;;;33.10;89.60;;;;;;5009353;28;20241;-71
2021/08/07 12:42:20;;;;;;;32.65;10.63;;;33.10;89.30;;;;;;5012729;28;20800;-74
2021/08/07 12:45:06;;;;;;;37.13;12.30;;;33.00;88.90;;;;;;5017350;28;20196;-72
2021/08/07 12:47:35;;;;;;;35.45;14.57;;;33.10;89.00;;;;;;5021842;28;20980;-73
2021/08/07 12:50:19;;;;;;;36.05;16.50;;;33.00;90.30;;;;;;5015948;28;20274;-71
2021/08/07 12:52:55;;;;;;;49.65;20.63;;;32.90;89.80;;;;;;5016485;28;20196;-71
2021/08/07 12:55:23;;;;;;;38.92;19.40;;;32.90;88.70;;;;;;5015098;28;20184;-71
2021/08/07 12:58:07;;;;;;;39.63;17.98;;;32.90;89.20;;;;;;5019179;28;20200;-70
2021/08/07 13:00:34;;;;;;;42.05;18.38;;;32.80;90.50;;;;;;5018160;28;20339;-71
2021/08/07 13:03:09;;;;;;;42.15;18.23;;;32.70;90.20;;;;;;5013325;28;20188;-71
2021/08/07 13:05:39;;;;;;;35.45;16.90;;;32.40;90.80;;;;;;5020686;28;20297;-70
2021/08/07 13:08:31;;;;;;;35.03;17.20;;;32.30;91.20;;;;;;5019669;28;20279;-71
2021/08/07 13:11:26;;;;;;;45.03;15.32;;;32.10;91.90;;;;;;5016438;28;20197;-70
2021/08/07 13:13:56;;;;;;;36.17;14.23;;;31.80;94.60;;;;;;5010292;28;20223;-75
2021/08/07 13:16:55;;;;;;;50.65;15.43;;;31.90;94.60;;;;;;5024574;28;20193;-74
2021/08/07 13:19:30;;;;;;;34.53;13.70;;;31.90;93.40;;;;;;5032215;28;20192;-72
2021/08/07 13:22:10;;;;;;;46.67;14.07;;;31.80;92.50;;;;;;5007639;28;20216;-73
2021/08/07 13:24:39;;;;;;;36.88;14.50;;;32.10;91.70;;;;;;5021505;28;20700;-73
2021/08/07 13:27:13;;;;;;;40.38;14.27;;;31.90;91.30;;;;;;5025587;28;20961;-71
2021/08/07 13:29:41;;;;;;;35.40;13.63;;;31.80;91.10;;;;;;5022816;28;20679;-70
2021/08/07 13:32:29;;;;;;;40.80;13.68;;;32.00;91.20;;;;;;5018619;28;20752;-70
2021/08/07 13:34:58;;;;;;;40.10;14.95;;;32.00;91.00;;;;;;5010252;28;20195;-73
2021/08/07 13:37:25;;;;;;;37.28;15.32;;;32.00;90.70;;;;;;5019638;28;20185;-71
2021/08/07 13:39:52;;;;;;;41.55;17.17;;;31.80;90.70;;;;;;5015861;28;20596;-72
2021/08/07 13:42:23;;;;;;;45.97;17.17;;;31.80;90.60;;;;;;5012089;28;20203;-72
2021/08/07 13:44:53;;;;;;;36.53;15.52;;;31.80;90.10;;;;;;5022179;28;20216;-71
2021/08/07 13:47:20;;;;;;;34.55;16.20;;;31.80;85.80;;;;;;5023063;28;20276;-72
2021/08/07 13:49:46;;;;;;;35.22;15.57;;;31.60;89.20;;;;;;5033082;28;20188;-69
2021/08/07 13:52:14;;;;;;;40.05;15.90;;;31.50;91.10;;;;;;5017993;28;20197;-71
2021/08/07 13:54:41;;;;;;;36.60;17.50;;;31.70;91.30;;;;;;5032835;28;20537;-71
2021/08/07 13:57:08;;;;;;;30.17;15.77;;;31.60;91.10;;;;;;5018917;28;20185;-73
2021/08/07 13:59:39;;;;;;;39.25;15.80;;;31.70;93.40;;;;;;5016186;28;20187;-71
2021/08/07 14:02:08;;;;;;;38.65;16.45;;;31.50;94.50;;;;;;5017263;28;20205;-71
2021/08/07 14:04:35;;;;;;;44.63;16.70;;;31.40;95.00;;;;;;5021601;28;20882;-72
2021/08/07 14:07:03;;;;;;;36.35;15.20;;;31.40;94.90;;;;;;5022605;28;20245;-73
2021/08/07 14:09:36;;;;;;;35.97;14.65;;;31.40;95.10;;;;;;5019176;28;20550;-72
2021/08/07 14:12:05;;;;;;;42.13;14.05;;;31.50;95.40;;;;;;5029930;28;20605;-73
2021/08/07 14:14:32;;;;;;;44.42;14.20;;;31.50;95.40;;;;;;5022138;28;20274;-72
2021/08/07 14:16:58;;;;;;;37.50;13.45;;;31.40;96.20;;;;;;5016117;28;20441;-73
2021/08/07 14:19:25;;;;;;;35.97;13.10;;;31.40;96.40;;;;;;5017728;28;20856;-71
2021/08/07 14:21:54;;;;;;;39.20;13.63;;;31.20;96.60;;;;;;5015332;28;20213;-72
2021/08/07 14:24:23;;;;;;;39.95;13.77;;;31.40;96.80;;;;;;5003654;28;20212;-73
2021/08/07 14:26:54;;;;;;;37.38;11.60;;;31.40;96.20;;;;;;5015964;28;20255;-71
2021/08/07 14:29:21;;;;;;;33.92;11.95;;;31.30;96.00;;;;;;5016500;28;20251;-75